createdAt,value
2019-01-27T00:01:07.782Z,5.67
2019-01-27T00:03:37.408Z,5.63
2019-01-27T00:06:07.015Z,5.47
2019-01-27T00:08:36.472Z,6.10
2019-01-27T00:11:06.024Z,6.67
2019-01-27T00:13:35.516Z,6.67
2019-01-27T00:16:05.490Z,6.07
2019-01-27T00:18:35.010Z,5.23
2019-01-27T00:21:04.783Z,5.67
2019-01-27T00:23:34.276Z,5.53
2019-01-27T00:26:03.818Z,5.13
2019-01-27T00:28:33.204Z,5.50
2019-01-27T00:31:02.755Z,5.13
2019-01-27T00:33:32.938Z,5.47
2019-01-27T00:36:03.141Z,7.67
2019-01-27T00:38:33.186Z,6.23
2019-01-27T00:41:02.728Z,6.93
2019-01-27T00:43:32.596Z,5.07
2019-01-27T00:46:02.078Z,5.40
2019-01-27T00:48:31.564Z,5.60
2019-01-27T00:51:01.140Z,4.97
2019-01-27T00:53:30.634Z,4.50
2019-01-27T00:56:00.094Z,4.17
2019-01-27T00:58:29.460Z,6.20
2019-01-27T01:00:58.870Z,5.27
2019-01-27T01:03:28.335Z,4.60
2019-01-27T01:05:57.736Z,4.80
2019-01-27T01:08:27.218Z,5.33
2019-01-27T01:10:56.722Z,4.87
2019-01-27T01:13:26.259Z,5.67
2019-01-27T01:15:55.725Z,6.17
2019-01-27T01:18:25.219Z,6.40
2019-01-27T01:20:54.766Z,5.03
2019-01-27T01:23:24.337Z,5.07
2019-01-27T01:25:53.721Z,5.27
2019-01-27T01:28:23.265Z,5.80
2019-01-27T01:30:52.813Z,5.60
2019-01-27T01:33:22.357Z,4.70
2019-01-27T01:35:51.898Z,6.33
2019-01-27T01:38:21.429Z,6.93
2019-01-27T01:40:50.934Z,5.57
2019-01-27T01:43:23.257Z,6.60
2019-01-27T01:45:52.840Z,5.17
2019-01-27T01:48:22.273Z,6.33
2019-01-27T01:50:51.757Z,6.60
2019-01-27T01:53:21.148Z,4.47
2019-01-27T01:55:50.649Z,4.50
2019-01-27T01:58:20.056Z,4.50
2019-01-27T02:00:49.479Z,7.97
2019-01-27T02:03:19.113Z,6.93
2019-01-27T02:05:50.243Z,4.67
2019-01-27T02:08:19.721Z,4.77
2019-01-27T02:10:50.952Z,5.73
2019-01-27T02:13:20.377Z,5.87
2019-01-27T02:15:58.835Z,5.83
2019-01-27T02:18:28.392Z,4.70
2019-01-27T02:20:57.812Z,4.80
2019-01-27T02:23:27.389Z,5.97
2019-01-27T02:25:56.875Z,4.70
2019-01-27T02:28:26.360Z,4.90
2019-01-27T02:30:55.881Z,5.17
2019-01-27T02:33:25.396Z,6.50
2019-01-27T02:35:55.009Z,4.57
2019-01-27T02:38:24.513Z,7.63
2019-01-27T02:40:53.959Z,4.93
2019-01-27T02:43:23.522Z,5.10
2019-01-27T02:45:54.722Z,6.77
2019-01-27T02:48:24.185Z,8.07
2019-01-27T02:50:53.648Z,7.10
2019-01-27T02:53:24.807Z,4.73
2019-01-27T02:55:54.382Z,6.83
2019-01-27T02:58:23.946Z,7.00
2019-01-27T03:00:53.401Z,5.83
2019-01-27T03:03:22.931Z,8.33
2019-01-27T03:06:05.875Z,5.07
2019-01-27T03:08:36.047Z,5.80
2019-01-27T03:11:05.947Z,6.13
2019-01-27T03:13:37.191Z,6.07
2019-01-27T03:16:06.793Z,9.93
2019-01-27T03:18:37.995Z,6.57
2019-01-27T03:21:07.805Z,9.53
2019-01-27T03:23:37.562Z,8.83
2019-01-27T03:26:07.213Z,5.90
2019-01-27T03:28:36.579Z,8.37
2019-01-27T03:31:06.222Z,9.83
2019-01-27T03:33:37.324Z,11.27
2019-01-27T03:36:08.609Z,7.03
2019-01-27T03:38:39.705Z,7.63
2019-01-27T03:41:11.014Z,4.63
2019-01-27T03:43:42.139Z,6.03
2019-01-27T03:46:13.309Z,8.30
2019-01-27T03:48:44.445Z,4.53
2019-01-27T03:51:13.950Z,8.43
2019-01-27T03:53:45.117Z,3.57
2019-01-27T03:56:16.267Z,5.63
2019-01-27T03:58:47.441Z,5.47
2019-01-27T04:01:16.909Z,7.33
2019-01-27T04:03:48.101Z,7.43
2019-01-27T04:06:17.759Z,6.57
2019-01-27T04:08:47.522Z,5.50
2019-01-27T04:11:16.967Z,5.87
2019-01-27T04:13:47.269Z,7.30
2019-01-27T04:16:18.389Z,7.40
2019-01-27T04:18:47.861Z,6.17
2019-01-27T04:21:17.341Z,6.10
2019-01-27T04:23:46.965Z,10.67
2019-01-27T04:26:16.407Z,6.73
2019-01-27T04:28:45.845Z,5.63
2019-01-27T04:31:15.220Z,6.37
2019-01-27T04:33:44.639Z,10.33
2019-01-27T04:36:14.029Z,4.53
2019-01-27T04:38:43.544Z,6.53
2019-01-27T04:41:13.012Z,8.33
2019-01-27T04:43:42.413Z,4.53
2019-01-27T04:46:11.949Z,6.97
2019-01-27T04:48:41.321Z,6.27
2019-01-27T04:51:10.791Z,6.20
2019-01-27T04:53:40.357Z,7.83
2019-01-27T04:56:09.857Z,8.63
2019-01-27T04:58:39.557Z,6.43
2019-01-27T05:01:09.111Z,10.43
2019-01-27T05:03:40.163Z,7.97
2019-01-27T05:06:09.710Z,7.83
2019-01-27T05:08:39.204Z,9.83
2019-01-27T05:11:08.659Z,7.63
2019-01-27T05:13:38.133Z,5.43
2019-01-27T05:16:07.677Z,6.67
2019-01-27T05:18:37.145Z,7.10
2019-01-27T05:21:06.569Z,7.80
2019-01-27T05:23:35.982Z,5.87
2019-01-27T05:26:05.561Z,10.70
2019-01-27T05:28:35.117Z,7.20
2019-01-27T05:31:04.635Z,7.27
2019-01-27T05:33:34.073Z,6.47
2019-01-27T05:36:03.576Z,7.57
2019-01-27T05:38:33.202Z,6.10
2019-01-27T05:41:02.605Z,6.37
2019-01-27T05:43:31.997Z,6.90
2019-01-27T05:46:01.481Z,7.40
2019-01-27T05:48:30.930Z,9.10
2019-01-27T05:51:00.365Z,5.23
2019-01-27T05:53:29.849Z,5.90
2019-01-27T05:55:59.315Z,5.53
2019-01-27T05:58:28.819Z,6.37
2019-01-27T06:00:58.227Z,6.67
2019-01-27T06:03:27.629Z,9.77
2019-01-27T06:05:57.080Z,7.77
2019-01-27T06:08:26.576Z,7.70
2019-01-27T06:10:55.957Z,7.93
2019-01-27T06:13:25.487Z,5.63
2019-01-27T06:15:54.926Z,8.70
2019-01-27T06:18:24.319Z,5.93
2019-01-27T06:20:53.801Z,10.50
2019-01-27T06:23:23.286Z,9.97
2019-01-27T06:25:52.690Z,8.90
2019-01-27T06:28:22.164Z,9.40
2019-01-27T06:30:51.559Z,8.97
2019-01-27T06:33:25.151Z,9.63
2019-01-27T06:35:54.555Z,6.83
2019-01-27T06:38:24.020Z,11.10
2019-01-27T06:40:53.449Z,12.03
2019-01-27T06:43:22.830Z,10.00
2019-01-27T06:45:52.241Z,9.47
2019-01-27T06:48:21.791Z,9.17
2019-01-27T06:50:51.321Z,6.43
2019-01-27T06:53:20.798Z,8.93
2019-01-27T06:55:51.232Z,9.00
2019-01-27T06:58:22.352Z,7.80
2019-01-27T07:01:08.282Z,8.43
2019-01-27T07:03:42.327Z,9.50
2019-01-27T07:06:13.410Z,7.47
2019-01-27T07:08:47.965Z,10.27
2019-01-27T07:11:31.009Z,11.10
2019-01-27T07:14:12.697Z,11.20
2019-01-27T07:16:52.411Z,9.70
2019-01-27T07:19:29.193Z,11.43
2019-01-27T07:22:14.973Z,9.13
2019-01-27T07:24:46.150Z,19.07
2019-01-27T07:27:17.383Z,10.23
2019-01-27T07:29:51.126Z,8.60
2019-01-27T07:32:38.199Z,9.73
2019-01-27T07:35:24.286Z,12.40
2019-01-27T07:38:03.945Z,7.17
2019-01-27T07:40:38.014Z,10.60
2019-01-27T07:43:11.505Z,11.70
2019-01-27T07:45:45.381Z,8.80
2019-01-27T07:48:25.381Z,7.20
2019-01-27T07:51:02.469Z,11.80
2019-01-27T07:53:42.448Z,12.37
2019-01-27T07:56:16.039Z,12.40
2019-01-27T07:58:55.877Z,11.03
2019-01-27T08:01:26.986Z,11.37
2019-01-27T08:04:03.661Z,10.07
2019-01-27T08:06:40.705Z,12.87
2019-01-27T08:09:28.093Z,13.53
2019-01-27T08:12:08.065Z,11.30
2019-01-27T08:14:39.241Z,10.20
2019-01-27T08:17:10.313Z,12.07
2019-01-27T08:19:41.353Z,9.97
2019-01-27T08:22:20.997Z,9.43
2019-01-27T08:24:55.015Z,8.80
2019-01-27T08:27:31.914Z,17.37
2019-01-27T08:30:14.645Z,13.17
2019-01-27T08:32:48.531Z,12.33
2019-01-27T08:35:31.459Z,10.23
2019-01-27T08:38:18.715Z,11.50
2019-01-27T08:40:49.817Z,13.97
2019-01-27T08:43:36.945Z,9.67
2019-01-27T08:46:07.944Z,6.23
2019-01-27T08:48:37.367Z,11.90
2019-01-27T08:51:06.772Z,10.63
2019-01-27T08:53:36.241Z,14.43
2019-01-27T08:56:05.766Z,15.23
2019-01-27T08:58:35.338Z,7.63
2019-01-27T09:01:06.869Z,11.83
2019-01-27T09:03:40.737Z,11.43
2019-01-27T09:06:13.580Z,12.30
2019-01-27T09:08:56.489Z,8.93
2019-01-27T09:11:27.573Z,9.60
2019-01-27T09:14:04.658Z,10.63
2019-01-27T09:16:35.832Z,8.20
2019-01-27T09:19:14.099Z,9.37
2019-01-27T09:21:45.202Z,14.53
2019-01-27T09:24:18.027Z,12.97
2019-01-27T09:26:51.863Z,11.50
2019-01-27T09:29:22.873Z,13.07
2019-01-27T09:31:53.999Z,10.53
2019-01-27T09:34:33.965Z,11.87
2019-01-27T09:37:07.933Z,11.37
2019-01-27T09:39:39.150Z,14.23
2019-01-27T09:42:26.545Z,9.13
2019-01-27T09:44:57.772Z,10.30
2019-01-27T09:47:34.893Z,12.43
2019-01-27T09:50:11.778Z,13.03
2019-01-27T09:52:42.919Z,11.00
2019-01-27T09:55:14.428Z,13.87
2019-01-27T09:58:03.341Z,17.30
2019-01-27T10:00:43.318Z,14.40
2019-01-27T10:03:14.424Z,10.33
2019-01-27T10:05:45.588Z,10.03
2019-01-27T10:08:16.675Z,14.77
2019-01-27T10:10:47.777Z,10.13
2019-01-27T10:13:19.125Z,13.03
2019-01-27T10:15:56.101Z,12.77
2019-01-27T10:18:36.144Z,11.50
2019-01-27T10:21:16.255Z,13.27
2019-01-27T10:23:47.384Z,10.73
2019-01-27T10:26:30.298Z,14.03
2019-01-27T10:29:10.623Z,11.00
2019-01-27T10:31:50.588Z,8.80
2019-01-27T10:34:21.711Z,8.67
2019-01-27T10:36:52.994Z,10.17
2019-01-27T10:39:24.034Z,9.67
2019-01-27T10:41:55.224Z,7.20
2019-01-27T10:44:29.100Z,7.80
2019-01-27T10:47:03.150Z,9.27
2019-01-27T10:49:52.288Z,9.30
2019-01-27T10:52:23.480Z,7.20
2019-01-27T10:54:54.498Z,7.80
2019-01-27T10:57:31.593Z,6.10
2019-01-27T11:00:05.438Z,10.17
2019-01-27T11:02:37.781Z,5.97
2019-01-27T11:05:21.202Z,6.43
2019-01-27T11:07:58.416Z,6.87
2019-01-27T11:10:44.337Z,9.60
2019-01-27T11:13:21.000Z,9.73
2019-01-27T11:15:57.917Z,6.40
2019-01-27T11:18:40.885Z,7.70
2019-01-27T11:21:14.796Z,5.80
2019-01-27T11:23:57.566Z,8.10
2019-01-27T11:26:34.403Z,5.27
2019-01-27T11:29:12.568Z,4.53
2019-01-27T11:31:43.610Z,6.73
2019-01-27T11:34:14.746Z,3.73
2019-01-27T11:36:48.555Z,4.13
2019-01-27T11:39:19.734Z,3.23
2019-01-27T11:42:06.648Z,7.83
2019-01-27T11:44:55.413Z,3.57
2019-01-27T11:47:31.874Z,2.70
2019-01-27T11:50:03.058Z,5.47
2019-01-27T11:52:32.572Z,6.30
2019-01-27T11:55:01.994Z,8.27
2019-01-27T11:57:32.428Z,8.03
2019-01-27T12:00:02.020Z,12.73
2019-01-27T12:02:31.438Z,6.60
2019-01-27T12:05:00.984Z,7.23
2019-01-27T12:07:30.476Z,3.47
2019-01-27T12:09:59.898Z,5.40
2019-01-27T12:12:29.298Z,3.23
2019-01-27T12:14:58.848Z,2.63
2019-01-27T12:17:28.304Z,2.60
2019-01-27T12:19:57.716Z,4.83
2019-01-27T12:22:27.184Z,1.73
2019-01-27T12:24:56.612Z,3.90
2019-01-27T12:27:25.983Z,4.23
2019-01-27T12:29:55.364Z,2.70
2019-01-27T12:32:24.839Z,4.03
2019-01-27T12:34:54.411Z,4.73
2019-01-27T12:37:24.008Z,3.93
2019-01-27T12:39:53.540Z,2.43
2019-01-27T12:42:23.006Z,6.07
2019-01-27T12:44:52.602Z,6.20
2019-01-27T12:47:22.718Z,15.53
2019-01-27T12:49:52.216Z,18.83
2019-01-27T12:52:21.700Z,11.63
2019-01-27T12:54:51.145Z,16.07
2019-01-27T12:57:20.707Z,20.00
2019-01-27T12:59:50.282Z,16.83
2019-01-27T13:02:19.745Z,21.70
2019-01-27T13:04:49.198Z,23.50
2019-01-27T13:07:18.592Z,28.83
2019-01-27T13:09:48.132Z,21.80
2019-01-27T13:12:17.586Z,20.97
2019-01-27T13:14:47.062Z,18.40
2019-01-27T13:17:16.449Z,20.00
2019-01-27T13:19:46.120Z,19.07
2019-01-27T13:22:15.705Z,18.30
2019-01-27T13:24:45.079Z,24.07
2019-01-27T13:27:15.076Z,16.63
2019-01-27T13:29:44.581Z,14.30
2019-01-27T13:32:14.050Z,15.73
2019-01-27T13:34:43.574Z,18.60
2019-01-27T13:37:13.932Z,18.07
2019-01-27T13:39:43.378Z,17.27
2019-01-27T13:42:12.851Z,20.37
2019-01-27T13:44:42.346Z,14.83
2019-01-27T13:47:11.714Z,13.33
2019-01-27T13:49:41.153Z,19.67
2019-01-27T13:52:12.328Z,11.23
2019-01-27T13:54:41.777Z,15.10
2019-01-27T13:57:11.310Z,15.63
2019-01-27T13:59:40.725Z,15.10
2019-01-27T14:02:11.280Z,17.67
2019-01-27T14:04:40.840Z,17.00
2019-01-27T14:07:10.310Z,18.77
2019-01-27T14:09:45.178Z,22.80
2019-01-27T14:12:14.665Z,12.40
2019-01-27T14:14:44.103Z,30.43
2019-01-27T14:17:13.635Z,26.47
2019-01-27T14:19:43.098Z,22.17
2019-01-27T14:22:12.653Z,21.57
2019-01-27T14:24:42.134Z,19.83
2019-01-27T14:27:11.678Z,25.13
2019-01-27T14:29:41.194Z,34.60
2019-01-27T14:32:10.701Z,27.73
2019-01-27T14:34:40.120Z,23.53
2019-01-27T14:37:09.557Z,28.80
2019-01-27T14:39:39.063Z,24.53
2019-01-27T14:42:08.634Z,31.67
2019-01-27T14:44:38.097Z,19.00
2019-01-27T14:47:07.563Z,23.30
2019-01-27T14:49:37.151Z,28.50
2019-01-27T14:52:06.781Z,24.37
2019-01-27T14:54:36.248Z,25.40
2019-01-27T14:57:05.669Z,17.80
2019-01-27T14:59:35.143Z,27.33
2019-01-27T15:02:04.831Z,29.00
2019-01-27T15:04:34.393Z,19.33
2019-01-27T15:07:03.939Z,18.70
2019-01-27T15:09:33.379Z,27.73
2019-01-27T15:12:02.806Z,19.80
2019-01-27T15:14:32.285Z,20.33
2019-01-27T15:17:01.797Z,27.80
2019-01-27T15:19:31.313Z,20.60
2019-01-27T15:22:00.763Z,18.70
2019-01-27T15:24:30.321Z,20.80
2019-01-27T15:26:59.827Z,18.33
2019-01-27T15:29:29.257Z,17.33
2019-01-27T15:31:58.746Z,19.60
2019-01-27T15:34:28.261Z,16.77
2019-01-27T15:36:57.836Z,18.00
2019-01-27T15:39:27.421Z,16.80
2019-01-27T15:41:56.903Z,14.77
2019-01-27T15:44:26.391Z,17.23
2019-01-27T15:46:55.925Z,12.97
2019-01-27T15:49:25.340Z,19.10
2019-01-27T15:51:54.747Z,14.70
2019-01-27T15:54:24.293Z,14.23
2019-01-27T15:56:53.701Z,10.13
2019-01-27T15:59:24.654Z,13.80
2019-01-27T16:01:54.195Z,11.87
2019-01-27T16:04:23.639Z,10.53
2019-01-27T16:06:53.021Z,8.03
2019-01-27T16:09:22.565Z,12.27
2019-01-27T16:11:52.086Z,13.10
2019-01-27T16:14:21.553Z,10.83
2019-01-27T16:16:51.092Z,12.87
2019-01-27T16:19:20.511Z,9.60
2019-01-27T16:21:49.993Z,10.57
2019-01-27T16:24:21.301Z,6.87
2019-01-27T16:26:50.786Z,11.73
2019-01-27T16:29:21.883Z,10.70
2019-01-27T16:31:53.068Z,9.47
2019-01-27T16:34:24.165Z,11.90
2019-01-27T16:36:53.967Z,11.73
2019-01-27T16:39:23.405Z,11.60
2019-01-27T16:41:53.002Z,11.30
2019-01-27T16:44:22.482Z,13.30
2019-01-27T16:46:52.103Z,14.43
2019-01-27T16:49:21.642Z,11.30
2019-01-27T16:51:51.067Z,11.93
2019-01-27T16:54:21.396Z,13.83
2019-01-27T16:56:50.875Z,10.87
2019-01-27T16:59:20.335Z,13.43
2019-01-27T17:01:49.823Z,9.90
2019-01-27T17:04:19.203Z,12.03
2019-01-27T17:06:48.671Z,10.93
2019-01-27T17:09:18.043Z,8.57
2019-01-27T17:11:47.881Z,12.53
2019-01-27T17:14:17.443Z,11.47
2019-01-27T17:16:47.020Z,13.87
2019-01-27T17:19:16.401Z,13.03
2019-01-27T17:21:45.853Z,9.83
2019-01-27T17:24:16.009Z,13.17
2019-01-27T17:26:47.146Z,10.70
2019-01-27T17:29:16.727Z,9.63
2019-01-27T17:31:46.264Z,14.47
2019-01-27T17:34:15.793Z,12.40
2019-01-27T17:36:45.349Z,8.67
2019-01-27T17:39:14.866Z,12.83
2019-01-27T17:41:44.361Z,14.60
2019-01-27T17:44:13.817Z,10.80
2019-01-27T17:46:43.939Z,14.17
2019-01-27T17:49:13.425Z,13.47
2019-01-27T17:51:42.838Z,15.60
2019-01-27T17:54:12.293Z,20.73
2019-01-27T17:56:43.247Z,16.47
2019-01-27T17:59:14.378Z,14.97
2019-01-27T18:01:48.639Z,17.13
2019-01-27T18:04:19.725Z,13.10
2019-01-27T18:06:50.855Z,15.60
2019-01-27T18:09:38.125Z,12.33
2019-01-27T18:12:09.235Z,10.03
2019-01-27T18:14:39.363Z,11.70
2019-01-27T18:17:08.887Z,12.33
2019-01-27T18:19:38.339Z,18.57
2019-01-27T18:22:07.808Z,14.30
2019-01-27T18:24:37.299Z,11.50
2019-01-27T18:27:06.769Z,16.97
2019-01-27T18:29:36.347Z,13.47
2019-01-27T18:32:05.967Z,14.37
2019-01-27T18:34:35.415Z,15.90
2019-01-27T18:37:05.774Z,10.63
2019-01-27T18:39:35.265Z,15.93
2019-01-27T18:42:04.898Z,17.67
2019-01-27T18:44:34.692Z,17.43
2019-01-27T18:47:04.337Z,18.77
2019-01-27T18:49:33.748Z,18.03
2019-01-27T18:52:03.219Z,22.83
2019-01-27T18:54:40.035Z,21.97
2019-01-27T18:57:22.841Z,16.50
2019-01-27T18:59:54.063Z,19.53
2019-01-27T19:02:34.016Z,21.87
2019-01-27T19:05:15.405Z,24.07
2019-01-27T19:07:46.534Z,20.37
2019-01-27T19:10:17.551Z,18.23
2019-01-27T19:12:51.439Z,16.23
2019-01-27T19:15:28.490Z,18.50
2019-01-27T19:17:59.665Z,13.70
2019-01-27T19:20:30.760Z,13.67
2019-01-27T19:23:01.784Z,13.03
2019-01-27T19:25:35.658Z,13.17
2019-01-27T19:28:07.015Z,11.07
2019-01-27T19:30:38.090Z,13.50
2019-01-27T19:33:09.430Z,16.17
2019-01-27T19:35:43.677Z,16.77
2019-01-27T19:38:14.752Z,14.60
2019-01-27T19:41:00.562Z,14.57
2019-01-27T19:43:40.827Z,14.77
2019-01-27T19:46:23.485Z,12.07
2019-01-27T19:48:57.443Z,24.93
2019-01-27T19:51:31.511Z,17.13
2019-01-27T19:54:06.430Z,11.37
2019-01-27T19:56:40.228Z,19.07
2019-01-27T19:59:17.126Z,17.07
2019-01-27T20:01:57.184Z,18.30
2019-01-27T20:04:30.906Z,13.97
2019-01-27T20:07:02.043Z,15.10
2019-01-27T20:09:36.098Z,18.67
2019-01-27T20:12:23.540Z,15.33
2019-01-27T20:14:54.662Z,18.37
2019-01-27T20:17:43.646Z,18.40
2019-01-27T20:20:28.534Z,21.90
2019-01-27T20:22:59.582Z,16.97
2019-01-27T20:25:30.626Z,16.97
2019-01-27T20:28:07.776Z,20.87
2019-01-27T20:30:39.008Z,23.10
2019-01-27T20:33:10.128Z,19.07
2019-01-27T20:35:55.976Z,23.33
2019-01-27T20:38:35.782Z,18.70
2019-01-27T20:41:23.573Z,18.30
2019-01-27T20:43:54.666Z,20.93
2019-01-27T20:46:41.978Z,20.53
2019-01-27T20:49:13.036Z,18.40
2019-01-27T20:51:53.448Z,16.57
2019-01-27T20:54:27.354Z,17.60
2019-01-27T20:57:01.496Z,23.20
2019-01-27T20:59:32.639Z,25.53
2019-01-27T21:02:14.320Z,22.77
2019-01-27T21:04:45.442Z,24.73
2019-01-27T21:07:19.489Z,18.70
2019-01-27T21:09:50.620Z,28.13
2019-01-27T21:12:27.148Z,25.63
2019-01-27T21:14:58.227Z,29.60
2019-01-27T21:17:38.252Z,27.27
2019-01-27T21:20:10.182Z,26.30
2019-01-27T21:22:40.576Z,28.10
2019-01-27T21:25:12.672Z,28.97
2019-01-27T21:27:42.122Z,19.07
2019-01-27T21:30:14.178Z,23.73
2019-01-27T21:32:45.352Z,17.83
2019-01-27T21:35:16.107Z,15.83
2019-01-27T21:37:45.457Z,17.93
2019-01-27T21:40:17.260Z,22.00
2019-01-27T21:42:47.472Z,23.90
2019-01-27T21:45:17.661Z,21.93
2019-01-27T21:47:47.214Z,20.53
2019-01-27T21:50:17.868Z,26.07
2019-01-27T21:52:47.324Z,19.93
2019-01-27T21:55:16.720Z,30.87
2019-01-27T21:57:46.112Z,23.33
2019-01-27T22:00:20.822Z,25.87
2019-01-27T22:02:50.392Z,30.37
2019-01-27T22:05:19.936Z,24.07
2019-01-27T22:07:49.386Z,33.60
2019-01-27T22:10:18.788Z,29.50
2019-01-27T22:12:48.306Z,28.63
2019-01-27T22:15:17.866Z,29.57
2019-01-27T22:17:47.938Z,21.00
2019-01-27T22:20:17.536Z,27.47
2019-01-27T22:22:47.002Z,26.50
2019-01-27T22:25:16.482Z,29.37
2019-01-27T22:27:45.984Z,22.10
2019-01-27T22:30:18.364Z,18.37
2019-01-27T22:32:47.894Z,23.47
2019-01-27T22:35:17.424Z,25.30
2019-01-27T22:37:46.964Z,23.03
2019-01-27T22:40:16.748Z,18.83
2019-01-27T22:42:47.374Z,20.20
2019-01-27T22:45:17.158Z,21.63
2019-01-27T22:47:46.669Z,17.77
2019-01-27T22:50:17.698Z,13.17
2019-01-27T22:52:47.263Z,19.00
2019-01-27T22:55:16.644Z,15.70
2019-01-27T22:57:46.204Z,17.10
2019-01-27T23:00:20.314Z,18.73
2019-01-27T23:02:49.922Z,20.57
2019-01-27T23:05:19.398Z,13.03
2019-01-27T23:07:48.867Z,12.07
2019-01-27T23:10:18.272Z,13.53
2019-01-27T23:12:47.770Z,13.37
2019-01-27T23:15:17.234Z,16.13
2019-01-27T23:17:47.594Z,18.00
2019-01-27T23:20:17.100Z,18.60
2019-01-27T23:22:46.576Z,12.90
2019-01-27T23:25:16.096Z,20.30
2019-01-27T23:27:45.628Z,11.73
2019-01-27T23:30:15.198Z,15.27
2019-01-27T23:32:44.626Z,15.63
2019-01-27T23:35:14.190Z,15.00
2019-01-27T23:37:43.728Z,12.83
2019-01-27T23:40:14.184Z,9.50
2019-01-27T23:42:45.130Z,13.03
2019-01-27T23:45:14.638Z,13.40
2019-01-27T23:47:44.140Z,12.03
2019-01-27T23:50:13.800Z,11.60
2019-01-27T23:52:43.331Z,13.50
2019-01-27T23:55:13.006Z,15.33
2019-01-27T23:57:42.480Z,13.47
